createdAt,value
2023-02-27T00:00:14.963Z,4.30
2023-02-27T00:02:43.893Z,4.55
2023-02-27T00:05:11.422Z,4.47
2023-02-27T00:07:38.718Z,4.53
2023-02-27T00:10:06.930Z,3.65
2023-02-27T00:12:38.037Z,3.50
2023-02-27T00:15:06.235Z,4.63
2023-02-27T00:17:33.136Z,4.57
2023-02-27T00:19:59.822Z,4.60
2023-02-27T00:22:26.763Z,4.00
2023-02-27T00:24:53.810Z,3.63
2023-02-27T00:27:20.659Z,4.18
2023-02-27T00:29:47.376Z,4.35
2023-02-27T00:32:14.228Z,4.18
2023-02-27T00:34:42.010Z,3.80
2023-02-27T00:37:08.590Z,4.40
2023-02-27T00:39:35.372Z,4.40
2023-02-27T00:42:02.030Z,4.70
2023-02-27T00:44:28.608Z,4.35
2023-02-27T00:46:55.298Z,4.97
2023-02-27T00:49:21.984Z,4.72
2023-02-27T00:51:48.610Z,5.10
2023-02-27T00:54:15.189Z,4.47
2023-02-27T00:56:42.568Z,5.05
2023-02-27T00:59:09.246Z,4.22
2023-02-27T01:01:35.870Z,4.13
2023-02-27T01:04:04.446Z,4.45
2023-02-27T01:06:31.198Z,3.80
2023-02-27T01:08:57.829Z,3.50
2023-02-27T01:11:24.719Z,3.75
2023-02-27T01:13:51.487Z,3.70
2023-02-27T01:16:18.255Z,3.70
2023-02-27T01:18:44.943Z,3.30
2023-02-27T01:21:11.544Z,3.53
2023-02-27T01:23:38.113Z,4.00
2023-02-27T01:26:04.955Z,3.63
2023-02-27T01:28:31.578Z,3.88
2023-02-27T01:30:58.218Z,3.90
2023-02-27T01:33:24.913Z,3.47
2023-02-27T01:35:51.499Z,3.35
2023-02-27T01:38:18.143Z,3.65
2023-02-27T01:40:44.861Z,3.83
2023-02-27T01:43:17.133Z,3.47
2023-02-27T01:45:49.350Z,3.30
2023-02-27T01:48:39.063Z,3.35
2023-02-27T01:51:14.461Z,3.47
2023-02-27T01:53:43.744Z,3.28
2023-02-27T01:56:18.195Z,3.20
2023-02-27T01:58:47.775Z,3.70
2023-02-27T02:01:15.431Z,3.83
2023-02-27T02:04:06.426Z,3.08
2023-02-27T02:06:37.172Z,3.08
2023-02-27T02:09:04.470Z,3.35
2023-02-27T02:11:31.573Z,3.05
2023-02-27T02:14:00.341Z,3.15
2023-02-27T02:16:45.027Z,3.67
2023-02-27T02:19:50.374Z,3.42
2023-02-27T02:22:48.009Z,2.80
2023-02-27T02:25:33.359Z,3.05
2023-02-27T02:28:17.998Z,3.40
2023-02-27T02:30:53.766Z,2.72
2023-02-27T02:33:39.017Z,3.42
2023-02-27T02:36:08.499Z,3.22
2023-02-27T02:38:53.903Z,3.03
2023-02-27T02:41:32.945Z,3.15
2023-02-27T02:44:29.287Z,2.70
2023-02-27T02:47:11.029Z,2.83
2023-02-27T02:50:23.974Z,2.50
2023-02-27T02:53:02.774Z,2.80
2023-02-27T02:55:40.810Z,3.00
2023-02-27T02:58:13.376Z,2.70
2023-02-27T03:00:45.734Z,3.42
2023-02-27T03:05:57.980Z,2.90
2023-02-27T03:08:33.105Z,2.75
2023-02-27T03:11:04.830Z,3.22
2023-02-27T03:13:34.089Z,3.20
2023-02-27T03:16:26.391Z,3.53
2023-02-27T03:19:08.487Z,3.00
2023-02-27T03:21:38.654Z,2.92
2023-02-27T03:24:11.326Z,3.33
2023-02-27T03:26:43.257Z,3.00
2023-02-27T03:29:21.130Z,2.88
2023-02-27T03:31:56.591Z,2.97
2023-02-27T03:34:29.820Z,3.45
2023-02-27T03:37:17.555Z,3.22
2023-02-27T03:39:52.931Z,3.08
2023-02-27T03:42:34.198Z,2.83
2023-02-27T03:45:05.340Z,3.10
2023-02-27T03:47:33.492Z,3.33
2023-02-27T03:50:00.641Z,3.75
2023-02-27T03:52:30.139Z,2.90
2023-02-27T03:55:05.892Z,3.15
2023-02-27T03:57:34.796Z,3.25
2023-02-27T04:00:01.519Z,3.53
2023-02-27T04:02:28.690Z,3.10
2023-02-27T04:04:55.445Z,2.67
2023-02-27T04:07:38.714Z,3.03
2023-02-27T04:10:14.394Z,3.22
2023-02-27T04:12:46.853Z,3.35
2023-02-27T04:18:00.871Z,3.38
2023-02-27T04:21:07.682Z,3.05
2023-02-27T04:23:43.068Z,3.35
2023-02-27T04:26:29.401Z,3.53
2023-02-27T04:29:08.099Z,3.30
2023-02-27T04:31:46.833Z,3.42
2023-02-27T04:34:34.115Z,3.03
2023-02-27T04:37:06.741Z,3.63
2023-02-27T04:39:52.023Z,3.13
2023-02-27T04:42:24.175Z,3.42
2023-02-27T04:44:54.968Z,3.58
2023-02-27T04:47:25.190Z,3.60
2023-02-27T04:49:57.783Z,3.90
2023-02-27T04:52:41.511Z,3.85
2023-02-27T04:55:18.300Z,3.60
2023-02-27T04:57:53.468Z,4.35
2023-02-27T05:00:24.181Z,3.47
2023-02-27T05:02:56.298Z,3.58
2023-02-27T05:05:30.108Z,4.03
2023-02-27T05:08:09.408Z,3.40
2023-02-27T05:10:49.606Z,3.67
2023-02-27T05:13:28.769Z,3.45
2023-02-27T05:16:18.742Z,3.85
2023-02-27T05:18:46.539Z,3.58
2023-02-27T05:21:28.346Z,4.00
2023-02-27T05:24:07.230Z,3.83
2023-02-27T05:26:51.873Z,4.05
2023-02-27T05:29:36.204Z,3.65
2023-02-27T05:32:21.027Z,3.72
2023-02-27T05:34:52.390Z,3.40
2023-02-27T05:37:28.630Z,3.17
2023-02-27T05:39:55.206Z,3.15
2023-02-27T05:42:38.584Z,3.42
2023-02-27T05:45:11.167Z,3.40
2023-02-27T05:47:42.151Z,3.08
2023-02-27T05:50:14.216Z,3.50
2023-02-27T05:52:43.142Z,3.70
2023-02-27T05:55:22.852Z,3.47
2023-02-27T05:57:59.602Z,3.70
2023-02-27T06:00:33.392Z,3.72
2023-02-27T06:03:00.286Z,3.45
2023-02-27T06:05:28.024Z,4.05
2023-02-27T06:07:55.285Z,4.45
2023-02-27T06:10:23.045Z,4.75
2023-02-27T06:12:49.889Z,3.30
2023-02-27T06:15:17.515Z,3.92
2023-02-27T06:17:44.165Z,3.53
2023-02-27T06:20:11.775Z,3.72
2023-02-27T06:22:38.388Z,3.53
2023-02-27T06:25:05.390Z,3.47
2023-02-27T06:27:32.003Z,4.00
2023-02-27T06:29:58.717Z,4.00
2023-02-27T06:32:25.937Z,3.40
2023-02-27T06:34:53.215Z,3.90
2023-02-27T06:37:20.624Z,3.42
2023-02-27T06:39:48.327Z,4.45
2023-02-27T06:42:15.897Z,4.22
2023-02-27T06:44:42.481Z,4.30
2023-02-27T06:47:09.274Z,4.50
2023-02-27T06:49:35.990Z,4.03
2023-02-27T06:52:02.604Z,3.95
2023-02-27T06:54:29.417Z,3.60
2023-02-27T06:56:56.382Z,4.30
2023-02-27T06:59:22.958Z,4.20
2023-02-27T07:01:50.144Z,3.63
2023-02-27T07:04:17.951Z,4.13
2023-02-27T07:07:34.246Z,3.60
2023-02-27T07:09:31.367Z,3.78
2023-02-27T07:11:57.984Z,4.28
2023-02-27T07:14:25.784Z,3.28
2023-02-27T07:16:55.383Z,3.10
2023-02-27T07:19:24.778Z,3.78
2023-02-27T07:21:51.440Z,3.47
2023-02-27T07:24:18.864Z,3.80
2023-02-27T07:26:45.506Z,3.78
2023-02-27T07:29:12.315Z,3.15
2023-02-27T07:31:39.081Z,3.10
2023-02-27T07:34:05.838Z,4.10
2023-02-27T07:36:34.336Z,3.35
2023-02-27T07:39:00.952Z,3.22
2023-02-27T07:41:30.795Z,3.50
2023-02-27T07:43:58.481Z,2.92
2023-02-27T07:46:27.640Z,3.35
2023-02-27T07:48:55.325Z,3.70
2023-02-27T07:51:23.507Z,2.78
2023-02-27T07:53:50.156Z,3.13
2023-02-27T07:56:16.734Z,3.53
2023-02-27T07:58:43.554Z,3.58
2023-02-27T08:01:10.237Z,3.67
2023-02-27T08:03:36.963Z,3.25
2023-02-27T08:06:03.709Z,3.97
2023-02-27T08:08:32.880Z,3.60
2023-02-27T08:10:59.722Z,3.50
2023-02-27T08:13:55.721Z,3.38
2023-02-27T08:16:13.544Z,3.63
2023-02-27T08:18:40.164Z,3.28
2023-02-27T08:21:06.810Z,3.78
2023-02-27T08:23:37.008Z,3.97
2023-02-27T08:26:03.733Z,4.10
2023-02-27T08:28:30.579Z,4.28
2023-02-27T08:30:57.320Z,4.07
2023-02-27T08:33:26.054Z,3.53
2023-02-27T08:35:54.553Z,5.50
2023-02-27T08:38:26.045Z,4.18
2023-02-27T08:40:55.821Z,4.47
2023-02-27T08:43:23.685Z,4.40
2023-02-27T08:45:50.843Z,4.57
2023-02-27T08:48:18.592Z,5.18
2023-02-27T08:50:46.844Z,5.65
2023-02-27T08:53:14.584Z,5.38
2023-02-27T08:55:42.646Z,5.65
2023-02-27T08:58:10.706Z,4.85
2023-02-27T09:00:37.443Z,5.18
2023-02-27T09:03:07.244Z,5.60
2023-02-27T09:05:35.467Z,5.82
2023-02-27T09:08:03.513Z,5.13
2023-02-27T09:10:30.982Z,4.78
2023-02-27T09:12:57.640Z,5.13
2023-02-27T09:15:24.476Z,5.38
2023-02-27T09:17:51.440Z,5.22
2023-02-27T09:20:18.133Z,5.00
2023-02-27T09:22:44.786Z,4.90
2023-02-27T09:25:11.405Z,4.93
2023-02-27T09:27:37.971Z,5.38
2023-02-27T09:30:05.536Z,5.35
2023-02-27T09:32:32.709Z,5.25
2023-02-27T09:35:00.481Z,5.00
2023-02-27T09:37:27.111Z,5.15
2023-02-27T09:39:53.795Z,4.72
2023-02-27T09:42:34.190Z,5.43
2023-02-27T09:45:07.408Z,5.57
2023-02-27T09:47:39.906Z,5.28
2023-02-27T09:50:28.765Z,4.82
2023-02-27T09:52:55.459Z,5.63
2023-02-27T09:55:22.742Z,5.25
2023-02-27T09:58:14.305Z,4.47
2023-02-27T10:01:03.308Z,5.07
2023-02-27T10:04:03.521Z,5.72
2023-02-27T10:06:36.085Z,4.82
2023-02-27T10:09:28.064Z,4.95
2023-02-27T10:12:22.631Z,5.28
2023-02-27T10:15:06.081Z,4.13
2023-02-27T10:17:39.558Z,5.07
2023-02-27T10:20:24.240Z,4.88
2023-02-27T10:22:53.346Z,4.93
2023-02-27T10:25:31.146Z,4.55
2023-02-27T10:28:11.280Z,4.63
2023-02-27T10:30:38.682Z,4.28
2023-02-27T10:33:14.452Z,4.55
2023-02-27T10:35:44.798Z,4.50
2023-02-27T10:38:17.892Z,4.40
2023-02-27T10:40:46.501Z,4.40
2023-02-27T10:43:19.276Z,4.60
2023-02-27T10:45:45.979Z,4.18
2023-02-27T10:48:13.521Z,3.92
2023-02-27T10:50:43.759Z,2.83
2023-02-27T10:53:23.579Z,3.15
2023-02-27T10:56:22.136Z,4.28
2023-02-27T10:59:03.626Z,3.30
2023-02-27T11:01:44.953Z,4.07
2023-02-27T11:04:13.418Z,2.65
2023-02-27T11:06:41.962Z,1.98
2023-02-27T11:09:13.293Z,2.25
2023-02-27T11:11:40.070Z,1.80
2023-02-27T11:14:28.216Z,2.03
2023-02-27T11:16:57.537Z,1.42
2023-02-27T11:19:25.939Z,1.65
2023-02-27T11:22:03.126Z,2.03
2023-02-27T11:24:31.113Z,2.30
2023-02-27T11:27:00.526Z,2.22
2023-02-27T11:29:28.531Z,1.73
2023-02-27T11:32:00.717Z,2.20
2023-02-27T11:34:32.600Z,1.60
2023-02-27T11:37:03.912Z,1.75
2023-02-27T11:39:33.460Z,1.30
2023-02-27T11:42:11.435Z,1.38
2023-02-27T11:44:49.962Z,1.10
2023-02-27T11:47:23.826Z,0.90
2023-02-27T11:50:09.094Z,0.90
2023-02-27T11:52:50.864Z,0.80
2023-02-27T11:55:23.009Z,1.55
2023-02-27T11:57:55.424Z,0.95
2023-02-27T12:02:58.785Z,1.25
2023-02-27T12:05:33.338Z,1.10
2023-02-27T12:08:16.227Z,1.38
2023-02-27T12:10:48.802Z,1.00
2023-02-27T12:13:21.948Z,0.80
2023-02-27T12:15:49.017Z,0.98
2023-02-27T12:18:28.054Z,0.88
2023-02-27T12:21:07.150Z,0.68
2023-02-27T12:24:13.331Z,0.93
2023-02-27T12:26:49.661Z,0.95
2023-02-27T12:29:28.699Z,0.77
2023-02-27T12:32:10.929Z,1.20
2023-02-27T12:35:05.555Z,0.93
2023-02-27T12:37:37.396Z,0.77
2023-02-27T12:40:10.929Z,0.73
2023-02-27T12:42:51.394Z,0.77
2023-02-27T12:45:31.795Z,0.95
2023-02-27T12:48:37.949Z,0.98
2023-02-27T12:51:52.131Z,1.05
2023-02-27T12:54:49.643Z,0.75
2023-02-27T12:57:51.867Z,1.00
2023-02-27T13:00:26.502Z,1.05
2023-02-27T13:03:26.520Z,1.10
2023-02-27T13:06:12.457Z,0.70
2023-02-27T13:08:57.415Z,0.93
2023-02-27T13:11:40.522Z,1.48
2023-02-27T13:14:29.124Z,1.30
2023-02-27T13:17:38.282Z,1.23
2023-02-27T13:20:14.517Z,1.40
2023-02-27T13:22:46.179Z,1.30
2023-02-27T13:25:17.800Z,1.30
2023-02-27T13:28:13.610Z,1.60
2023-02-27T13:30:44.835Z,0.90
2023-02-27T13:33:14.889Z,1.10
2023-02-27T13:36:06.467Z,1.33
2023-02-27T13:38:50.336Z,1.45
2023-02-27T13:41:29.079Z,0.93
2023-02-27T13:44:22.516Z,1.08
2023-02-27T13:46:54.423Z,0.88
2023-02-27T13:49:29.358Z,1.27
2023-02-27T13:51:59.676Z,0.90
2023-02-27T13:54:33.661Z,1.13
2023-02-27T13:57:21.458Z,1.10
2023-02-27T13:59:54.745Z,1.02
2023-02-27T14:02:57.778Z,0.98
2023-02-27T14:05:31.842Z,0.80
2023-02-27T14:08:10.654Z,0.90
2023-02-27T14:10:40.812Z,0.90
2023-02-27T14:13:49.618Z,0.80
2023-02-27T14:16:38.605Z,0.77
2023-02-27T14:22:12.913Z,1.13
2023-02-27T14:25:02.945Z,0.90
2023-02-27T14:27:56.978Z,0.90
2023-02-27T14:30:28.862Z,0.90
2023-02-27T14:33:00.739Z,0.85
2023-02-27T14:35:29.094Z,1.20
2023-02-27T14:37:56.321Z,0.90
2023-02-27T14:40:34.108Z,1.00
2023-02-27T14:43:29.109Z,0.90
2023-02-27T14:46:06.085Z,0.73
2023-02-27T14:48:32.871Z,1.00
2023-02-27T14:51:04.915Z,0.98
2023-02-27T14:53:31.533Z,0.90
2023-02-27T14:56:00.419Z,0.90
2023-02-27T14:58:27.870Z,0.65
2023-02-27T15:01:07.846Z,0.68
2023-02-27T15:03:40.241Z,0.88
2023-02-27T15:06:18.264Z,0.60
2023-02-27T15:08:49.709Z,1.00
2023-02-27T15:11:19.888Z,1.00
2023-02-27T15:13:48.191Z,0.77
2023-02-27T15:16:24.140Z,0.70
2023-02-27T15:18:56.657Z,0.85
2023-02-27T15:21:26.595Z,0.82
2023-02-27T15:24:10.324Z,0.73
2023-02-27T15:26:40.592Z,1.15
2023-02-27T15:29:10.506Z,1.10
2023-02-27T15:31:39.864Z,0.73
2023-02-27T15:34:14.445Z,1.10
2023-02-27T15:36:48.742Z,0.90
2023-02-27T15:39:19.894Z,1.50
2023-02-27T15:41:59.597Z,1.50
2023-02-27T15:44:36.714Z,1.40
2023-02-27T15:47:04.373Z,1.67
2023-02-27T15:49:31.458Z,1.58
2023-02-27T15:52:05.975Z,1.52
2023-02-27T15:54:47.166Z,19.52
2023-02-27T15:57:14.940Z,2.78
2023-02-27T15:59:49.726Z,5.75
2023-02-27T16:02:44.215Z,3.45
2023-02-27T16:05:18.806Z,1.50
2023-02-27T16:07:47.057Z,1.33
2023-02-27T16:10:30.153Z,2.67
2023-02-27T16:12:58.075Z,2.47
2023-02-27T16:15:36.519Z,1.33
2023-02-27T16:18:12.167Z,2.05
2023-02-27T16:20:42.028Z,1.20
2023-02-27T16:23:32.701Z,1.55
2023-02-27T16:26:20.644Z,1.80
2023-02-27T16:28:59.493Z,1.30
2023-02-27T16:31:34.920Z,1.10
2023-02-27T16:34:16.185Z,1.70
2023-02-27T16:36:55.287Z,1.60
2023-02-27T16:39:22.045Z,1.90
2023-02-27T16:41:49.497Z,2.00
2023-02-27T16:44:18.185Z,2.47
2023-02-27T16:46:44.959Z,2.30
2023-02-27T16:49:23.910Z,2.58
2023-02-27T16:51:51.425Z,2.38
2023-02-27T16:54:18.798Z,2.55
2023-02-27T16:56:47.257Z,2.85
2023-02-27T16:59:35.965Z,2.75
2023-02-27T17:02:06.316Z,2.67
2023-02-27T17:04:33.085Z,3.40
2023-02-27T17:07:01.793Z,4.10
2023-02-27T17:09:29.244Z,3.70
2023-02-27T17:11:57.203Z,3.78
2023-02-27T17:14:24.713Z,3.08
2023-02-27T17:16:51.766Z,4.13
2023-02-27T17:19:21.320Z,4.60
2023-02-27T17:21:48.261Z,4.40
2023-02-27T17:24:14.853Z,4.85
2023-02-27T17:26:41.405Z,5.57
2023-02-27T17:29:09.671Z,4.57
2023-02-27T17:31:37.337Z,5.68
2023-02-27T17:34:05.526Z,5.43
2023-02-27T17:36:32.519Z,5.75
2023-02-27T17:39:02.466Z,7.20
2023-02-27T17:41:30.556Z,7.78
2023-02-27T17:43:58.346Z,7.88
2023-02-27T17:46:26.921Z,9.93
2023-02-27T17:48:56.186Z,10.88
2023-02-27T17:51:22.908Z,16.02
2023-02-27T17:53:49.483Z,12.55
2023-02-27T17:56:16.102Z,9.27
2023-02-27T17:58:45.557Z,8.93
2023-02-27T18:01:22.882Z,8.65
2023-02-27T18:03:50.364Z,8.60
2023-02-27T18:06:17.862Z,7.55
2023-02-27T18:08:44.665Z,7.00
2023-02-27T18:11:13.202Z,6.30
2023-02-27T18:13:42.912Z,7.28
2023-02-27T18:16:10.833Z,6.90
2023-02-27T18:18:39.284Z,6.30
2023-02-27T18:21:24.547Z,6.53
2023-02-27T18:23:52.201Z,6.35
2023-02-27T18:26:29.968Z,5.93
2023-02-27T18:29:00.616Z,6.00
2023-02-27T18:31:30.924Z,5.80
2023-02-27T18:33:57.520Z,5.70
2023-02-27T18:36:24.817Z,5.75
2023-02-27T18:38:51.434Z,5.72
2023-02-27T18:41:18.120Z,5.25
2023-02-27T18:43:44.841Z,5.90
2023-02-27T18:46:12.954Z,4.93
2023-02-27T18:48:40.777Z,5.13
2023-02-27T18:51:12.397Z,4.55
2023-02-27T18:53:40.905Z,5.18
2023-02-27T18:56:08.961Z,5.28
2023-02-27T18:58:36.238Z,4.75
2023-02-27T19:01:04.128Z,4.88
2023-02-27T19:03:31.616Z,4.82
2023-02-27T19:05:58.454Z,5.35
2023-02-27T19:08:28.986Z,5.20
2023-02-27T19:10:56.975Z,6.43
2023-02-27T19:13:24.007Z,6.22
2023-02-27T19:15:50.712Z,5.30
2023-02-27T19:18:17.488Z,5.50
2023-02-27T19:20:44.080Z,6.43
2023-02-27T19:23:10.777Z,6.93
2023-02-27T19:25:37.511Z,6.93
2023-02-27T19:28:05.236Z,8.45
2023-02-27T19:30:31.900Z,7.60
2023-02-27T19:32:58.506Z,8.77
2023-02-27T19:35:25.454Z,11.07
2023-02-27T19:37:57.033Z,8.68
2023-02-27T19:40:24.812Z,9.47
2023-02-27T19:42:51.626Z,9.00
2023-02-27T19:45:18.657Z,9.48
2023-02-27T19:47:46.679Z,10.20
2023-02-27T19:50:13.533Z,10.35
2023-02-27T19:52:40.345Z,9.88
2023-02-27T19:55:07.532Z,10.68
2023-02-27T19:57:35.141Z,10.55
2023-02-27T20:00:01.721Z,10.13
2023-02-27T20:02:29.165Z,10.10
2023-02-27T20:04:55.737Z,11.93
2023-02-27T20:07:22.838Z,11.40
2023-02-27T20:09:49.925Z,12.63
2023-02-27T20:12:16.506Z,13.48
2023-02-27T20:14:43.130Z,14.43
2023-02-27T20:17:09.781Z,13.75
2023-02-27T20:19:36.515Z,13.25
2023-02-27T20:22:04.181Z,14.18
2023-02-27T20:24:30.829Z,14.95
2023-02-27T20:26:59.256Z,14.10
2023-02-27T20:29:27.652Z,14.52
2023-02-27T20:31:55.506Z,14.32
2023-02-27T20:34:26.345Z,14.27
2023-02-27T20:36:57.684Z,15.10
2023-02-27T20:39:24.757Z,14.98
2023-02-27T20:41:51.474Z,13.98
2023-02-27T20:44:18.181Z,13.65
2023-02-27T20:46:47.595Z,14.88
2023-02-27T20:49:15.872Z,13.15
2023-02-27T20:51:43.052Z,13.48
2023-02-27T20:54:13.576Z,13.75
2023-02-27T20:56:41.464Z,13.93
2023-02-27T20:59:12.944Z,12.98
2023-02-27T21:01:40.447Z,13.65
2023-02-27T21:04:07.336Z,12.70
2023-02-27T21:06:34.905Z,12.73
2023-02-27T21:09:05.220Z,13.30
2023-02-27T21:11:33.310Z,12.85
2023-02-27T21:14:04.727Z,12.15
2023-02-27T21:16:31.631Z,12.43
2023-02-27T21:18:58.329Z,12.32
2023-02-27T21:21:31.141Z,13.50
2023-02-27T21:23:58.895Z,11.35
2023-02-27T21:26:34.850Z,12.57
2023-02-27T21:29:05.828Z,12.43
2023-02-27T21:31:33.985Z,12.07
2023-02-27T21:34:02.236Z,13.23
2023-02-27T21:36:32.360Z,13.52
2023-02-27T21:39:02.269Z,13.25
2023-02-27T21:41:29.882Z,13.05
2023-02-27T21:44:01.012Z,13.93
2023-02-27T21:46:28.593Z,15.00
2023-02-27T21:48:55.244Z,15.18
2023-02-27T21:51:38.268Z,13.90
2023-02-27T21:54:09.914Z,13.45
2023-02-27T21:56:36.995Z,14.63
2023-02-27T21:59:04.261Z,13.93
2023-02-27T22:01:31.878Z,14.05
2023-02-27T22:03:58.746Z,13.25
2023-02-27T22:06:28.040Z,13.95
2023-02-27T22:08:56.468Z,13.63
2023-02-27T22:11:24.225Z,13.68
2023-02-27T22:13:50.905Z,13.93
2023-02-27T22:16:18.305Z,12.48
2023-02-27T22:18:45.368Z,12.90
2023-02-27T22:21:21.547Z,12.35
2023-02-27T22:23:48.908Z,12.48
2023-02-27T22:26:21.436Z,12.80
2023-02-27T22:28:48.079Z,11.95
2023-02-27T22:31:21.172Z,11.95
2023-02-27T22:33:51.037Z,12.18
2023-02-27T22:36:24.116Z,12.88
2023-02-27T22:38:51.695Z,11.07
2023-02-27T22:41:21.781Z,10.88
2023-02-27T22:43:48.471Z,12.32
2023-02-27T22:46:17.854Z,11.88
2023-02-27T22:48:44.695Z,12.07
2023-02-27T22:51:14.430Z,12.02
2023-02-27T22:53:42.528Z,10.65
2023-02-27T22:56:14.583Z,11.93
2023-02-27T22:58:42.868Z,11.55
2023-02-27T23:01:10.368Z,11.52
2023-02-27T23:03:38.024Z,11.15
2023-02-27T23:06:06.479Z,11.00
2023-02-27T23:08:33.574Z,11.35
2023-02-27T23:11:00.305Z,11.55
2023-02-27T23:13:27.331Z,11.60
2023-02-27T23:15:54.768Z,10.80
2023-02-27T23:18:21.485Z,11.32
2023-02-27T23:20:48.105Z,10.27
2023-02-27T23:23:14.683Z,10.55
2023-02-27T23:25:41.714Z,10.95
2023-02-27T23:28:08.384Z,10.73
2023-02-27T23:30:35.053Z,11.82
2023-02-27T23:33:01.860Z,10.13
2023-02-27T23:35:29.010Z,10.77
2023-02-27T23:37:57.754Z,10.18
2023-02-27T23:40:26.376Z,10.25
2023-02-27T23:43:12.082Z,10.18
2023-02-27T23:45:38.855Z,10.55
2023-02-27T23:48:05.901Z,9.63
2023-02-27T23:50:35.217Z,10.35
2023-02-27T23:53:01.913Z,10.43
2023-02-27T23:55:30.151Z,10.35
2023-02-27T23:57:58.843Z,9.30
